ABY386 OLBA-OMSJ
Flight info
| Callsign | ABY386 |
|---|---|
| Flight time | 2h 48m |
| Altitude | 35000 |
| Route | LATEB N310 BASEM R785 ZELAF DCT RASLI P559 TOMSO/N0459F310 P559 KIVUS L305 EMOTA R784 GONVI |
| Aircraft | A320/M-SDE3FGHIRWY/LB1 |
Departure
| Time | 2026-04-28 11:10 |
|---|---|
| Airport | Beirut Rafic Hariri International Airport (OLBA) |
Arrival
| Time | 2026-04-28 13:58 |
|---|---|
| Airport | Sharjah International Airport (OMSJ) |
| Time | Latitude | Longitude | Altitude | Speed | Heading |
|---|---|---|---|---|---|
| 2026-04-28 10:37 | 33.82266 | 35.49321 | 61 ft | 0 kts | 85° |
| 2026-04-28 10:59 | 33.82266 | 35.49319 | 62 ft | 2 kts | 85° |
| 2026-04-28 10:59 | 33.82265 | 35.49288 | 61 ft | 4 kts | 97° |
| 2026-04-28 10:59 | 33.82272 | 35.49258 | 58 ft | 4 kts | 122° |
| 2026-04-28 11:00 | 33.82289 | 35.49239 | 63 ft | 4 kts | 181° |
| 2026-04-28 11:00 | 33.82294 | 35.49239 | 54 ft | 0 kts | 189° |
| 2026-04-28 11:03 | 33.82282 | 35.49236 | 63 ft | 3 kts | 192° |
| 2026-04-28 11:04 | 33.82263 | 35.49231 | 63 ft | 2 kts | 193° |
| 2026-04-28 11:04 | 33.82220 | 35.49235 | 60 ft | 17 kts | 154° |
| 2026-04-28 11:04 | 33.82177 | 35.49350 | 61 ft | 12 kts | 109° |
| 2026-04-28 11:04 | 33.82144 | 35.49440 | 56 ft | 11 kts | 121° |
| 2026-04-28 11:05 | 33.82112 | 35.49519 | 56 ft | 10 kts | 97° |
| 2026-04-28 11:05 | 33.82144 | 35.49577 | 58 ft | 8 kts | 35° |
| 2026-04-28 11:05 | 33.82189 | 35.49612 | 56 ft | 8 kts | 34° |
| 2026-04-28 11:05 | 33.82229 | 35.49646 | 51 ft | 6 kts | 35° |
| 2026-04-28 11:06 | 33.82267 | 35.49678 | 54 ft | 12 kts | 36° |
| 2026-04-28 11:06 | 33.82361 | 35.49758 | 58 ft | 17 kts | 35° |
| 2026-04-28 11:06 | 33.82454 | 35.49837 | 54 ft | 15 kts | 35° |
| 2026-04-28 11:06 | 33.82534 | 35.49905 | 53 ft | 13 kts | 35° |
| 2026-04-28 11:07 | 33.82604 | 35.49964 | 55 ft | 11 kts | 35° |
| 2026-04-28 11:07 | 33.82668 | 35.50019 | 58 ft | 11 kts | 35° |
| 2026-04-28 11:07 | 33.82726 | 35.50069 | 55 ft | 9 kts | 35° |
| 2026-04-28 11:07 | 33.82765 | 35.50121 | 61 ft | 8 kts | 79° |
| 2026-04-28 11:08 | 33.82742 | 35.50187 | 71 ft | 9 kts | 124° |
| 2026-04-28 11:08 | 33.82712 | 35.50240 | 75 ft | 6 kts | 124° |
| 2026-04-28 11:08 | 33.82676 | 35.50281 | 75 ft | 6 kts | 171° |
| 2026-04-28 11:08 | 33.82639 | 35.50266 | 71 ft | 5 kts | 210° |
| 2026-04-28 11:09 | 33.82627 | 35.50257 | 78 ft | 0 kts | 212° |
| 2026-04-28 11:09 | 33.82561 | 35.50207 | 70 ft | 41 kts | 212° |
| 2026-04-28 11:09 | 33.82121 | 35.49861 | 56 ft | 107 kts | 213° |
| 2026-04-28 11:09 | 33.81343 | 35.49260 | 57 ft | 157 kts | 213° |
| 2026-04-28 11:10 | 33.80381 | 35.48472 | 480 ft | 166 kts | 218° |
| 2026-04-28 11:10 | 33.79524 | 35.47545 | 1169 ft | 167 kts | 227° |
| 2026-04-28 11:10 | 33.78696 | 35.46515 | 1613 ft | 180 kts | 227° |
| 2026-04-28 11:10 | 33.77777 | 35.45362 | 1812 ft | 203 kts | 226° |
| 2026-04-28 11:11 | 33.76736 | 35.44064 | 2088 ft | 228 kts | 226° |
| 2026-04-28 11:11 | 33.75587 | 35.42646 | 2487 ft | 249 kts | 226° |
| 2026-04-28 11:11 | 33.74349 | 35.41126 | 3143 ft | 259 kts | 226° |
| 2026-04-28 11:11 | 33.73073 | 35.39560 | 3881 ft | 265 kts | 226° |
| 2026-04-28 11:12 | 33.71766 | 35.37960 | 4659 ft | 271 kts | 227° |
| 2026-04-28 11:12 | 33.70490 | 35.36269 | 5400 ft | 275 kts | 237° |
| 2026-04-28 11:12 | 33.69644 | 35.34207 | 6168 ft | 277 kts | 256° |
| 2026-04-28 11:12 | 33.69386 | 35.31927 | 6907 ft | 277 kts | 274° |
| 2026-04-28 11:13 | 33.69742 | 35.29660 | 7665 ft | 277 kts | 293° |
| 2026-04-28 11:13 | 33.70671 | 35.27644 | 8410 ft | 277 kts | 310° |
| 2026-04-28 11:13 | 33.72084 | 35.26077 | 9182 ft | 278 kts | 328° |
| 2026-04-28 11:13 | 33.73839 | 35.25113 | 9918 ft | 280 kts | 346° |
| 2026-04-28 11:14 | 33.75780 | 35.24864 | 10583 ft | 284 kts | 4° |
| 2026-04-28 11:14 | 33.77755 | 35.25389 | 10944 ft | 303 kts | 21° |
| 2026-04-28 11:14 | 33.79593 | 35.26811 | 11100 ft | 328 kts | 40° |
| 2026-04-28 11:14 | 33.81393 | 35.28640 | 11261 ft | 348 kts | 35° |
| 2026-04-28 11:15 | 33.83383 | 35.30370 | 11719 ft | 356 kts | 35° |
| 2026-04-28 11:15 | 33.85413 | 35.32117 | 12300 ft | 362 kts | 34° |
| 2026-04-28 11:15 | 33.87482 | 35.33877 | 12900 ft | 367 kts | 34° |
| 2026-04-28 11:15 | 33.89582 | 35.35647 | 13477 ft | 371 kts | 33° |
| 2026-04-28 11:16 | 33.91717 | 35.37441 | 14026 ft | 376 kts | 34° |
| 2026-04-28 11:16 | 33.93874 | 35.39256 | 14560 ft | 380 kts | 34° |
| 2026-04-28 11:16 | 33.96050 | 35.41093 | 15094 ft | 384 kts | 33° |
| 2026-04-28 11:16 | 33.98246 | 35.42951 | 15634 ft | 387 kts | 34° |
| 2026-04-28 11:17 | 34.00451 | 35.44822 | 16172 ft | 390 kts | 34° |
| 2026-04-28 11:17 | 34.02680 | 35.46714 | 16694 ft | 393 kts | 34° |
| 2026-04-28 11:17 | 34.04928 | 35.48620 | 17208 ft | 397 kts | 34° |
| 2026-04-28 11:17 | 34.07194 | 35.50540 | 17710 ft | 400 kts | 33° |
| 2026-04-28 11:18 | 34.09484 | 35.52480 | 18219 ft | 403 kts | 34° |
| 2026-04-28 11:18 | 34.11783 | 35.54429 | 18646 ft | 406 kts | 34° |
| 2026-04-28 11:18 | 34.14105 | 35.56396 | 19096 ft | 409 kts | 34° |
| 2026-04-28 11:18 | 34.16405 | 35.58348 | 19526 ft | 411 kts | 34° |
| 2026-04-28 11:19 | 34.18758 | 35.60348 | 19946 ft | 414 kts | 34° |
| 2026-04-28 11:19 | 34.21121 | 35.62359 | 20358 ft | 417 kts | 34° |
| 2026-04-28 11:19 | 34.23460 | 35.64465 | 20758 ft | 421 kts | 41° |
| 2026-04-28 11:19 | 34.25373 | 35.67158 | 21153 ft | 425 kts | 57° |
| 2026-04-28 11:20 | 34.26641 | 35.70381 | 21571 ft | 427 kts | 73° |
| 2026-04-28 11:20 | 34.27175 | 35.73910 | 21961 ft | 429 kts | 89° |
| 2026-04-28 11:20 | 34.26917 | 35.77498 | 22357 ft | 429 kts | 104° |
| 2026-04-28 11:20 | 34.25918 | 35.80895 | 22746 ft | 430 kts | 115° |
| 2026-04-28 11:21 | 34.24671 | 35.84195 | 23144 ft | 432 kts | 116° |
| 2026-04-28 11:21 | 34.23407 | 35.87505 | 23534 ft | 435 kts | 116° |
| 2026-04-28 11:21 | 34.22132 | 35.90823 | 23859 ft | 437 kts | 116° |
| 2026-04-28 11:21 | 34.20851 | 35.94156 | 24163 ft | 439 kts | 116° |
| 2026-04-28 11:22 | 34.19576 | 35.97474 | 24470 ft | 442 kts | 116° |
| 2026-04-28 11:22 | 34.18282 | 36.00848 | 24764 ft | 444 kts | 116° |
| 2026-04-28 11:22 | 34.16981 | 36.04241 | 25067 ft | 446 kts | 116° |
| 2026-04-28 11:22 | 34.15672 | 36.07652 | 25351 ft | 449 kts | 116° |
| 2026-04-28 11:23 | 34.14359 | 36.11073 | 25643 ft | 451 kts | 116° |
| 2026-04-28 11:23 | 34.13039 | 36.14517 | 25928 ft | 453 kts | 116° |
| 2026-04-28 11:23 | 34.11712 | 36.17974 | 26230 ft | 455 kts | 116° |
| 2026-04-28 11:23 | 34.10374 | 36.21447 | 26511 ft | 457 kts | 116° |
| 2026-04-28 11:24 | 34.09029 | 36.24928 | 26791 ft | 459 kts | 116° |
| 2026-04-28 11:24 | 34.07675 | 36.28432 | 27048 ft | 462 kts | 116° |
| 2026-04-28 11:24 | 34.06317 | 36.31950 | 27313 ft | 464 kts | 116° |
| 2026-04-28 11:24 | 34.04948 | 36.35485 | 27563 ft | 466 kts | 116° |
| 2026-04-28 11:25 | 34.03570 | 36.39034 | 27828 ft | 468 kts | 116° |
| 2026-04-28 11:25 | 34.02226 | 36.42556 | 28049 ft | 470 kts | 115° |
| 2026-04-28 11:25 | 34.00920 | 36.46171 | 28301 ft | 472 kts | 114° |
| 2026-04-28 11:25 | 33.99649 | 36.49828 | 28538 ft | 474 kts | 114° |
| 2026-04-28 11:26 | 33.98389 | 36.53516 | 28769 ft | 476 kts | 114° |
| 2026-04-28 11:26 | 33.97122 | 36.57206 | 28998 ft | 478 kts | 114° |
| 2026-04-28 11:26 | 33.95807 | 36.60889 | 29297 ft | 478 kts | 115° |
| 2026-04-28 11:26 | 33.94455 | 36.64534 | 29640 ft | 477 kts | 116° |
| 2026-04-28 11:27 | 33.93073 | 36.68168 | 29967 ft | 477 kts | 116° |
| 2026-04-28 11:27 | 33.91681 | 36.71789 | 30255 ft | 476 kts | 116° |
| 2026-04-28 11:27 | 33.90291 | 36.75413 | 30502 ft | 477 kts | 116° |
| 2026-04-28 11:27 | 33.88908 | 36.79036 | 30720 ft | 478 kts | 116° |
| 2026-04-28 11:28 | 33.87527 | 36.82680 | 30964 ft | 478 kts | 116° |
| 2026-04-28 11:28 | 33.86154 | 36.86326 | 31221 ft | 478 kts | 116° |
| 2026-04-28 11:28 | 33.84782 | 36.89969 | 31489 ft | 478 kts | 116° |
| 2026-04-28 11:28 | 33.83407 | 36.93617 | 31743 ft | 478 kts | 116° |
| 2026-04-28 11:29 | 33.82049 | 36.97212 | 31985 ft | 478 kts | 116° |
| 2026-04-28 11:29 | 33.80670 | 37.00853 | 32226 ft | 479 kts | 117° |
| 2026-04-28 11:29 | 33.79284 | 37.04500 | 32447 ft | 480 kts | 117° |
| 2026-04-28 11:29 | 33.77895 | 37.08148 | 32691 ft | 480 kts | 117° |
| 2026-04-28 11:30 | 33.76503 | 37.11805 | 32928 ft | 481 kts | 117° |
| 2026-04-28 11:30 | 33.73721 | 37.19116 | 33419 ft | 481 kts | 117° |
| 2026-04-28 11:30 | 33.72328 | 37.22769 | 33675 ft | 481 kts | 117° |
| 2026-04-28 11:31 | 33.70929 | 37.26434 | 33856 ft | 483 kts | 117° |
| 2026-04-28 11:31 | 33.69527 | 37.30099 | 34031 ft | 484 kts | 117° |
| 2026-04-28 11:31 | 33.68115 | 37.33785 | 34217 ft | 485 kts | 117° |
| 2026-04-28 11:31 | 33.66704 | 37.37470 | 34410 ft | 486 kts | 117° |
| 2026-04-28 11:32 | 33.65295 | 37.41153 | 34595 ft | 486 kts | 118° |
| 2026-04-28 11:32 | 33.63878 | 37.44843 | 34777 ft | 487 kts | 118° |
| 2026-04-28 11:32 | 33.62456 | 37.48536 | 34898 ft | 488 kts | 118° |
| 2026-04-28 11:32 | 33.61029 | 37.52240 | 34936 ft | 490 kts | 118° |
| 2026-04-28 11:33 | 33.58057 | 37.59518 | 34931 ft | 486 kts | 126° |
| 2026-04-28 11:33 | 33.53722 | 37.65568 | 34931 ft | 474 kts | 145° |
| 2026-04-28 11:34 | 33.48212 | 37.69690 | 34935 ft | 463 kts | 160° |
| 2026-04-28 11:34 | 33.42396 | 37.73017 | 34926 ft | 464 kts | 160° |
| 2026-04-28 11:35 | 33.37555 | 37.75791 | 34913 ft | 464 kts | 160° |
| 2026-04-28 11:35 | 33.31691 | 37.79136 | 34917 ft | 464 kts | 160° |
| 2026-04-28 11:36 | 33.25894 | 37.82423 | 34924 ft | 464 kts | 160° |
| 2026-04-28 11:36 | 33.20050 | 37.85740 | 34928 ft | 465 kts | 160° |
| 2026-04-28 11:37 | 33.14211 | 37.89057 | 34930 ft | 465 kts | 160° |
| 2026-04-28 11:37 | 33.08364 | 37.92365 | 34924 ft | 465 kts | 160° |
| 2026-04-28 11:38 | 33.02518 | 37.95666 | 34922 ft | 465 kts | 161° |
| 2026-04-28 11:38 | 32.96669 | 37.98977 | 34934 ft | 465 kts | 161° |
| 2026-04-28 11:39 | 32.90827 | 38.02328 | 34936 ft | 466 kts | 160° |
| 2026-04-28 11:39 | 32.85029 | 38.05803 | 34941 ft | 467 kts | 159° |
| 2026-04-28 11:40 | 32.79272 | 38.09286 | 34935 ft | 467 kts | 159° |
| 2026-04-28 11:40 | 32.73470 | 38.12737 | 34945 ft | 466 kts | 160° |
| 2026-04-28 11:41 | 32.67657 | 38.16160 | 34947 ft | 466 kts | 160° |
| 2026-04-28 11:41 | 32.61847 | 38.19585 | 34942 ft | 466 kts | 160° |
| 2026-04-28 11:42 | 32.56040 | 38.23019 | 34940 ft | 467 kts | 160° |
| 2026-04-28 11:42 | 32.50237 | 38.26454 | 34939 ft | 467 kts | 160° |
| 2026-04-28 11:43 | 32.44418 | 38.29885 | 34955 ft | 467 kts | 160° |
| 2026-04-28 11:43 | 32.38598 | 38.33311 | 34957 ft | 467 kts | 160° |
| 2026-04-28 11:44 | 32.32779 | 38.36733 | 34957 ft | 467 kts | 160° |
| 2026-04-28 11:44 | 32.26992 | 38.40134 | 34945 ft | 467 kts | 160° |
| 2026-04-28 11:45 | 32.21136 | 38.43555 | 34951 ft | 467 kts | 160° |
| 2026-04-28 11:45 | 32.15347 | 38.46945 | 34957 ft | 467 kts | 160° |
| 2026-04-28 11:46 | 32.09528 | 38.50340 | 34965 ft | 467 kts | 160° |
| 2026-04-28 11:46 | 32.03703 | 38.53738 | 34967 ft | 467 kts | 160° |
| 2026-04-28 11:47 | 31.97874 | 38.57132 | 34961 ft | 467 kts | 160° |
| 2026-04-28 11:47 | 31.92054 | 38.60523 | 34967 ft | 467 kts | 160° |
| 2026-04-28 11:48 | 31.86230 | 38.63913 | 34973 ft | 467 kts | 160° |
| 2026-04-28 11:48 | 31.80407 | 38.67300 | 34958 ft | 467 kts | 161° |
| 2026-04-28 11:49 | 31.74620 | 38.70653 | 34964 ft | 467 kts | 161° |
| 2026-04-28 11:49 | 31.69053 | 38.74702 | 34967 ft | 480 kts | 145° |
| 2026-04-28 11:50 | 31.64466 | 38.80516 | 34964 ft | 488 kts | 136° |
| 2026-04-28 11:50 | 31.60018 | 38.86544 | 34967 ft | 488 kts | 137° |
| 2026-04-28 11:51 | 31.55565 | 38.92553 | 34961 ft | 488 kts | 137° |
| 2026-04-28 11:51 | 31.51104 | 38.98569 | 34969 ft | 489 kts | 137° |
| 2026-04-28 11:52 | 31.46642 | 39.04580 | 34972 ft | 489 kts | 137° |
| 2026-04-28 11:52 | 31.42207 | 39.10542 | 34966 ft | 489 kts | 137° |
| 2026-04-28 11:53 | 31.37734 | 39.16543 | 34938 ft | 489 kts | 137° |
| 2026-04-28 11:53 | 31.33254 | 39.22536 | 34948 ft | 489 kts | 138° |
| 2026-04-28 11:54 | 31.28764 | 39.28530 | 34958 ft | 490 kts | 138° |
| 2026-04-28 11:54 | 31.24273 | 39.34525 | 34957 ft | 490 kts | 137° |
| 2026-04-28 11:55 | 31.19776 | 39.40524 | 34949 ft | 491 kts | 138° |
| 2026-04-28 11:55 | 31.15274 | 39.46513 | 34955 ft | 491 kts | 138° |
| 2026-04-28 11:56 | 31.10767 | 39.52510 | 34955 ft | 491 kts | 138° |
| 2026-04-28 11:56 | 31.06258 | 39.58500 | 34945 ft | 491 kts | 138° |
| 2026-04-28 11:57 | 31.01742 | 39.64482 | 34956 ft | 491 kts | 139° |
| 2026-04-28 11:57 | 30.97215 | 39.70459 | 34959 ft | 492 kts | 138° |
| 2026-04-28 11:58 | 30.92720 | 39.76401 | 34945 ft | 492 kts | 139° |
| 2026-04-28 11:58 | 30.88189 | 39.82392 | 34937 ft | 493 kts | 139° |
| 2026-04-28 11:59 | 30.83648 | 39.88368 | 34951 ft | 493 kts | 139° |
| 2026-04-28 11:59 | 30.79092 | 39.94349 | 34956 ft | 493 kts | 139° |
| 2026-04-28 12:00 | 30.74534 | 40.00327 | 34961 ft | 494 kts | 139° |
| 2026-04-28 12:00 | 30.69979 | 40.06304 | 34952 ft | 494 kts | 139° |
| 2026-04-28 12:01 | 30.65455 | 40.12235 | 34959 ft | 494 kts | 139° |
| 2026-04-28 12:01 | 30.60896 | 40.18221 | 34967 ft | 496 kts | 136° |
| 2026-04-28 12:02 | 30.57165 | 40.25104 | 34969 ft | 508 kts | 125° |
| 2026-04-28 12:02 | 30.53764 | 40.32292 | 34955 ft | 509 kts | 126° |
| 2026-04-28 12:03 | 30.50353 | 40.39483 | 34958 ft | 509 kts | 126° |
| 2026-04-28 12:03 | 30.46929 | 40.46667 | 34941 ft | 509 kts | 126° |
| 2026-04-28 12:04 | 30.43484 | 40.53862 | 34965 ft | 512 kts | 126° |
| 2026-04-28 12:04 | 30.40051 | 40.61037 | 34970 ft | 512 kts | 126° |
| 2026-04-28 12:05 | 30.36595 | 40.68254 | 34965 ft | 513 kts | 126° |
| 2026-04-28 12:05 | 30.33129 | 40.75466 | 34965 ft | 512 kts | 126° |
| 2026-04-28 12:06 | 30.29664 | 40.82670 | 34971 ft | 512 kts | 126° |
| 2026-04-28 12:06 | 30.26191 | 40.89868 | 34971 ft | 512 kts | 127° |
| 2026-04-28 12:07 | 30.22718 | 40.97064 | 34953 ft | 512 kts | 127° |
| 2026-04-28 12:07 | 30.19243 | 41.04259 | 34949 ft | 512 kts | 127° |
| 2026-04-28 12:08 | 30.15779 | 41.11396 | 34955 ft | 512 kts | 127° |
| 2026-04-28 12:08 | 30.12295 | 41.18579 | 34935 ft | 513 kts | 127° |
| 2026-04-28 12:09 | 30.08802 | 41.25755 | 34942 ft | 513 kts | 127° |
| 2026-04-28 12:09 | 30.05307 | 41.32937 | 34948 ft | 513 kts | 127° |
| 2026-04-28 12:10 | 30.01806 | 41.40109 | 34934 ft | 513 kts | 127° |
| 2026-04-28 12:10 | 29.98297 | 41.47271 | 34941 ft | 513 kts | 127° |
| 2026-04-28 12:11 | 29.94784 | 41.54433 | 34938 ft | 513 kts | 127° |
| 2026-04-28 12:11 | 29.91291 | 41.61539 | 34924 ft | 513 kts | 128° |
| 2026-04-28 12:12 | 29.87771 | 41.68698 | 34930 ft | 513 kts | 128° |
| 2026-04-28 12:12 | 29.84244 | 41.75846 | 34927 ft | 513 kts | 128° |
| 2026-04-28 12:13 | 29.80716 | 41.82997 | 34919 ft | 513 kts | 128° |
| 2026-04-28 12:13 | 29.77180 | 41.90142 | 34925 ft | 514 kts | 128° |
| 2026-04-28 12:14 | 29.73641 | 41.97278 | 34930 ft | 514 kts | 128° |
| 2026-04-28 12:14 | 29.70096 | 42.04417 | 34910 ft | 514 kts | 128° |
| 2026-04-28 12:15 | 29.66549 | 42.11556 | 34913 ft | 514 kts | 128° |
| 2026-04-28 12:15 | 29.63022 | 42.18645 | 34918 ft | 514 kts | 128° |
| 2026-04-28 12:16 | 29.59464 | 42.25776 | 34905 ft | 514 kts | 128° |
| 2026-04-28 12:16 | 29.55898 | 42.32909 | 34907 ft | 515 kts | 128° |
| 2026-04-28 12:17 | 29.52330 | 42.40038 | 34910 ft | 515 kts | 128° |
| 2026-04-28 12:17 | 29.48750 | 42.47170 | 34869 ft | 516 kts | 129° |
| 2026-04-28 12:18 | 29.45156 | 42.54328 | 34902 ft | 518 kts | 129° |
| 2026-04-28 12:18 | 29.41555 | 42.61497 | 34878 ft | 518 kts | 129° |
| 2026-04-28 12:19 | 29.37975 | 42.68606 | 34889 ft | 518 kts | 129° |
| 2026-04-28 12:19 | 29.34363 | 42.75757 | 34890 ft | 518 kts | 129° |
| 2026-04-28 12:20 | 29.30745 | 42.82908 | 34887 ft | 519 kts | 129° |
| 2026-04-28 12:20 | 29.27125 | 42.90055 | 34884 ft | 519 kts | 129° |
| 2026-04-28 12:21 | 29.23496 | 42.97200 | 34888 ft | 519 kts | 129° |
| 2026-04-28 12:21 | 29.19860 | 43.04347 | 34872 ft | 519 kts | 129° |
| 2026-04-28 12:22 | 29.16229 | 43.11482 | 34871 ft | 519 kts | 129° |
| 2026-04-28 12:22 | 29.12609 | 43.18576 | 34875 ft | 519 kts | 129° |
| 2026-04-28 12:23 | 29.08959 | 43.25712 | 34862 ft | 520 kts | 129° |
| 2026-04-28 12:23 | 29.05310 | 43.32838 | 34869 ft | 520 kts | 129° |
| 2026-04-28 12:24 | 29.01654 | 43.39964 | 34869 ft | 520 kts | 129° |
| 2026-04-28 12:24 | 28.97991 | 43.47087 | 34838 ft | 519 kts | 130° |
| 2026-04-28 12:25 | 28.94327 | 43.54198 | 34840 ft | 520 kts | 130° |
| 2026-04-28 12:25 | 28.90658 | 43.61311 | 34844 ft | 520 kts | 130° |
| 2026-04-28 12:26 | 28.86991 | 43.68414 | 34826 ft | 519 kts | 130° |
| 2026-04-28 12:26 | 28.83317 | 43.75514 | 34831 ft | 519 kts | 130° |
| 2026-04-28 12:27 | 28.79660 | 43.82557 | 34835 ft | 520 kts | 130° |
| 2026-04-28 12:27 | 28.75976 | 43.89658 | 34822 ft | 520 kts | 130° |
| 2026-04-28 12:28 | 28.72290 | 43.96746 | 34829 ft | 520 kts | 130° |
| 2026-04-28 12:28 | 28.69219 | 44.02639 | 34832 ft | 520 kts | 130° |
| 2026-04-28 12:29 | 28.63675 | 44.13256 | 34824 ft | 520 kts | 130° |
| 2026-04-28 12:30 | 28.59969 | 44.20341 | 34829 ft | 520 kts | 130° |
| 2026-04-28 12:30 | 28.56268 | 44.27415 | 34818 ft | 520 kts | 130° |
| 2026-04-28 12:31 | 28.52561 | 44.34484 | 34828 ft | 520 kts | 130° |
| 2026-04-28 12:31 | 28.48865 | 44.41501 | 34809 ft | 520 kts | 130° |
| 2026-04-28 12:32 | 28.45148 | 44.48557 | 34811 ft | 520 kts | 130° |
| 2026-04-28 12:32 | 28.41440 | 44.55596 | 34827 ft | 520 kts | 130° |
| 2026-04-28 12:33 | 28.37708 | 44.62649 | 34808 ft | 520 kts | 130° |
| 2026-04-28 12:33 | 28.33985 | 44.69691 | 34825 ft | 520 kts | 130° |
| 2026-04-28 12:34 | 28.30265 | 44.76721 | 34838 ft | 520 kts | 130° |
| 2026-04-28 12:34 | 28.26528 | 44.83740 | 34842 ft | 519 kts | 131° |
| 2026-04-28 12:35 | 28.22792 | 44.90756 | 34843 ft | 520 kts | 130° |
| 2026-04-28 12:35 | 28.19058 | 44.97772 | 34846 ft | 519 kts | 130° |
| 2026-04-28 12:36 | 28.15316 | 45.04773 | 34832 ft | 519 kts | 131° |
| 2026-04-28 12:36 | 28.11599 | 45.11724 | 34836 ft | 519 kts | 130° |
| 2026-04-28 12:37 | 28.07837 | 45.18766 | 34821 ft | 519 kts | 130° |
| 2026-04-28 12:37 | 28.04132 | 45.25698 | 34833 ft | 518 kts | 131° |
| 2026-04-28 12:38 | 28.00390 | 45.32675 | 34837 ft | 518 kts | 131° |
| 2026-04-28 12:38 | 27.96647 | 45.39637 | 34819 ft | 517 kts | 131° |
| 2026-04-28 12:39 | 27.92900 | 45.46588 | 34826 ft | 517 kts | 131° |
| 2026-04-28 12:39 | 27.89206 | 45.53585 | 34830 ft | 524 kts | 125° |
| 2026-04-28 12:39 | 27.87784 | 45.57420 | 34833 ft | 535 kts | 115° |
| 2026-04-28 12:40 | 27.86846 | 45.61467 | 34841 ft | 542 kts | 109° |
| 2026-04-28 12:40 | 27.85170 | 45.69765 | 34836 ft | 542 kts | 110° |
| 2026-04-28 12:41 | 27.83457 | 45.78065 | 34824 ft | 542 kts | 110° |
| 2026-04-28 12:41 | 27.81731 | 45.86359 | 34829 ft | 543 kts | 110° |
| 2026-04-28 12:42 | 27.80011 | 45.94660 | 34831 ft | 543 kts | 110° |
| 2026-04-28 12:42 | 27.78294 | 46.02961 | 34822 ft | 543 kts | 110° |
| 2026-04-28 12:43 | 27.76565 | 46.11266 | 34828 ft | 543 kts | 110° |
| 2026-04-28 12:43 | 27.74825 | 46.19559 | 34830 ft | 542 kts | 110° |
| 2026-04-28 12:44 | 27.73086 | 46.27844 | 34826 ft | 542 kts | 110° |
| 2026-04-28 12:44 | 27.71360 | 46.36139 | 34796 ft | 542 kts | 110° |
| 2026-04-28 12:45 | 27.69634 | 46.44416 | 34805 ft | 542 kts | 110° |
| 2026-04-28 12:45 | 27.67908 | 46.52631 | 34804 ft | 542 kts | 110° |
| 2026-04-28 12:46 | 27.66168 | 46.60907 | 34808 ft | 542 kts | 110° |
| 2026-04-28 12:46 | 27.64420 | 46.69163 | 34784 ft | 541 kts | 110° |
| 2026-04-28 12:47 | 27.62665 | 46.77417 | 34790 ft | 541 kts | 110° |
| 2026-04-28 12:47 | 27.60917 | 46.85659 | 34803 ft | 541 kts | 110° |
| 2026-04-28 12:48 | 27.59163 | 46.93897 | 34788 ft | 540 kts | 110° |
| 2026-04-28 12:48 | 27.57397 | 47.02119 | 34789 ft | 540 kts | 110° |
| 2026-04-28 12:49 | 27.55641 | 47.10292 | 34774 ft | 540 kts | 110° |
| 2026-04-28 12:49 | 27.53872 | 47.18509 | 34781 ft | 540 kts | 110° |
| 2026-04-28 12:50 | 27.52097 | 47.26741 | 34782 ft | 540 kts | 110° |
| 2026-04-28 12:50 | 27.50317 | 47.34975 | 34781 ft | 541 kts | 110° |
| 2026-04-28 12:51 | 27.48526 | 47.43206 | 34758 ft | 541 kts | 110° |
| 2026-04-28 12:51 | 27.46727 | 47.51431 | 34765 ft | 541 kts | 110° |
| 2026-04-28 12:52 | 27.44931 | 47.59662 | 34775 ft | 542 kts | 110° |
| 2026-04-28 12:52 | 27.42966 | 47.67831 | 34772 ft | 538 kts | 114° |
| 2026-04-28 12:53 | 27.40632 | 47.75823 | 34771 ft | 536 kts | 116° |
| 2026-04-28 12:53 | 27.38224 | 47.83763 | 34748 ft | 537 kts | 115° |
| 2026-04-28 12:54 | 27.35909 | 47.91766 | 34757 ft | 537 kts | 114° |
| 2026-04-28 12:54 | 27.33659 | 47.99790 | 34765 ft | 538 kts | 114° |
| 2026-04-28 12:55 | 27.31410 | 48.07739 | 34766 ft | 537 kts | 114° |
| 2026-04-28 12:55 | 27.29184 | 48.15761 | 34745 ft | 538 kts | 113° |
| 2026-04-28 12:56 | 27.27070 | 48.23862 | 34753 ft | 539 kts | 112° |
| 2026-04-28 12:56 | 27.24973 | 48.31952 | 34755 ft | 539 kts | 112° |
| 2026-04-28 12:57 | 27.22834 | 48.40037 | 34753 ft | 539 kts | 113° |
| 2026-04-28 12:57 | 27.20662 | 48.48112 | 34733 ft | 539 kts | 112° |
| 2026-04-28 12:58 | 27.18492 | 48.56183 | 34752 ft | 539 kts | 112° |
| 2026-04-28 12:58 | 27.16330 | 48.64251 | 34759 ft | 539 kts | 112° |
| 2026-04-28 12:59 | 27.14184 | 48.72259 | 34754 ft | 539 kts | 112° |
| 2026-04-28 12:59 | 27.12019 | 48.80317 | 34753 ft | 539 kts | 112° |
| 2026-04-28 13:00 | 27.10030 | 48.88439 | 34738 ft | 544 kts | 104° |
| 2026-04-28 13:00 | 27.09450 | 48.96935 | 34742 ft | 548 kts | 96° |
| 2026-04-28 13:01 | 27.09075 | 49.05489 | 34747 ft | 548 kts | 96° |
| 2026-04-28 13:01 | 27.08682 | 49.14030 | 34746 ft | 548 kts | 96° |
| 2026-04-28 13:02 | 27.08275 | 49.22524 | 34743 ft | 548 kts | 96° |
| 2026-04-28 13:02 | 27.07862 | 49.31074 | 34749 ft | 549 kts | 96° |
| 2026-04-28 13:03 | 27.07442 | 49.39637 | 34751 ft | 549 kts | 96° |
| 2026-04-28 13:03 | 27.07021 | 49.48193 | 34752 ft | 549 kts | 96° |
| 2026-04-28 13:04 | 27.06608 | 49.56748 | 34756 ft | 549 kts | 96° |
| 2026-04-28 13:04 | 27.06197 | 49.65309 | 34762 ft | 549 kts | 96° |
| 2026-04-28 13:05 | 27.05768 | 49.73859 | 34773 ft | 548 kts | 96° |
| 2026-04-28 13:05 | 27.05325 | 49.82346 | 34782 ft | 549 kts | 97° |
| 2026-04-28 13:06 | 27.04878 | 49.90899 | 34790 ft | 549 kts | 97° |
| 2026-04-28 13:06 | 27.04472 | 49.99458 | 34780 ft | 550 kts | 94° |
| 2026-04-28 13:07 | 27.04465 | 50.08046 | 34782 ft | 551 kts | 91° |
| 2026-04-28 13:07 | 27.04700 | 50.16638 | 34793 ft | 551 kts | 90° |
| 2026-04-28 13:08 | 27.04873 | 50.25239 | 34804 ft | 551 kts | 91° |
| 2026-04-28 13:08 | 27.04826 | 50.33758 | 34803 ft | 548 kts | 98° |
| 2026-04-28 13:09 | 27.03179 | 50.42003 | 34804 ft | 536 kts | 117° |
| 2026-04-28 13:09 | 27.00281 | 50.49661 | 34799 ft | 534 kts | 119° |
| 2026-04-28 13:10 | 26.97373 | 50.57326 | 34788 ft | 534 kts | 119° |
| 2026-04-28 13:10 | 26.94470 | 50.64986 | 34792 ft | 535 kts | 119° |
| 2026-04-28 13:11 | 26.91552 | 50.72659 | 34795 ft | 535 kts | 119° |
| 2026-04-28 13:11 | 26.88621 | 50.80336 | 34804 ft | 536 kts | 119° |
| 2026-04-28 13:12 | 26.85693 | 50.88004 | 34802 ft | 536 kts | 118° |
| 2026-04-28 13:12 | 26.82749 | 50.95680 | 34806 ft | 536 kts | 118° |
| 2026-04-28 13:13 | 26.79831 | 51.03299 | 34812 ft | 536 kts | 118° |
| 2026-04-28 13:13 | 26.76929 | 51.10998 | 34817 ft | 537 kts | 117° |
| 2026-04-28 13:14 | 26.74321 | 51.18854 | 34808 ft | 539 kts | 114° |
| 2026-04-28 13:14 | 26.71919 | 51.26801 | 34805 ft | 539 kts | 113° |
| 2026-04-28 13:15 | 26.69465 | 51.34727 | 34820 ft | 538 kts | 114° |
| 2026-04-28 13:15 | 26.66919 | 51.42588 | 34820 ft | 538 kts | 115° |
| 2026-04-28 13:16 | 26.64343 | 51.50441 | 34820 ft | 538 kts | 115° |
| 2026-04-28 13:16 | 26.61803 | 51.58302 | 34804 ft | 538 kts | 114° |
| 2026-04-28 13:17 | 26.59299 | 51.66109 | 34816 ft | 537 kts | 114° |
| 2026-04-28 13:17 | 26.56772 | 51.73955 | 34820 ft | 536 kts | 114° |
| 2026-04-28 13:18 | 26.54243 | 51.81783 | 34820 ft | 535 kts | 114° |
| 2026-04-28 13:18 | 26.51703 | 51.89595 | 34818 ft | 535 kts | 114° |
| 2026-04-28 13:19 | 26.49127 | 51.97377 | 34808 ft | 534 kts | 114° |
| 2026-04-28 13:19 | 26.46967 | 52.03825 | 34818 ft | 533 kts | 114° |
| 2026-04-28 13:20 | 26.44369 | 52.11575 | 34820 ft | 533 kts | 114° |
| 2026-04-28 13:20 | 26.41782 | 52.19323 | 34826 ft | 533 kts | 114° |
| 2026-04-28 13:21 | 26.39191 | 52.27077 | 34830 ft | 533 kts | 114° |
| 2026-04-28 13:21 | 26.36592 | 52.34826 | 34823 ft | 533 kts | 114° |
| 2026-04-28 13:22 | 26.33928 | 52.42528 | 34831 ft | 531 kts | 116° |
| 2026-04-28 13:22 | 26.31021 | 52.50084 | 34828 ft | 530 kts | 118° |
| 2026-04-28 13:23 | 26.28031 | 52.57587 | 34827 ft | 529 kts | 118° |
| 2026-04-28 13:23 | 26.25094 | 52.65111 | 34823 ft | 530 kts | 117° |
| 2026-04-28 13:24 | 26.22225 | 52.72622 | 34817 ft | 530 kts | 117° |
| 2026-04-28 13:24 | 26.19344 | 52.80196 | 34818 ft | 530 kts | 117° |
| 2026-04-28 13:25 | 26.16462 | 52.87726 | 34538 ft | 525 kts | 117° |
| 2026-04-28 13:25 | 26.15028 | 52.91462 | 33994 ft | 527 kts | 117° |
| 2026-04-28 13:25 | 26.13578 | 52.95226 | 33101 ft | 531 kts | 117° |
| 2026-04-28 13:25 | 26.12116 | 52.99014 | 32206 ft | 534 kts | 117° |
| 2026-04-28 13:26 | 26.10649 | 53.02814 | 31277 ft | 537 kts | 117° |
| 2026-04-28 13:26 | 26.09179 | 53.06650 | 30391 ft | 539 kts | 117° |
| 2026-04-28 13:26 | 26.07759 | 53.10470 | 30111 ft | 528 kts | 116° |
| 2026-04-28 13:26 | 26.06395 | 53.14219 | 29679 ft | 521 kts | 116° |
| 2026-04-28 13:27 | 26.05044 | 53.17966 | 29288 ft | 519 kts | 116° |
| 2026-04-28 13:27 | 26.03697 | 53.21693 | 28896 ft | 518 kts | 116° |
| 2026-04-28 13:27 | 26.02348 | 53.25394 | 28513 ft | 515 kts | 116° |
| 2026-04-28 13:27 | 26.00998 | 53.29071 | 28125 ft | 512 kts | 116° |
| 2026-04-28 13:28 | 25.99652 | 53.32713 | 27743 ft | 508 kts | 116° |
| 2026-04-28 13:28 | 25.98324 | 53.36295 | 27367 ft | 505 kts | 116° |
| 2026-04-28 13:28 | 25.96994 | 53.39879 | 26990 ft | 502 kts | 116° |
| 2026-04-28 13:28 | 25.95662 | 53.43463 | 26614 ft | 498 kts | 116° |
| 2026-04-28 13:29 | 25.94343 | 53.47010 | 26243 ft | 495 kts | 116° |
| 2026-04-28 13:29 | 25.93033 | 53.50539 | 25872 ft | 492 kts | 116° |
| 2026-04-28 13:29 | 25.91768 | 53.54066 | 25501 ft | 490 kts | 115° |
| 2026-04-28 13:29 | 25.90552 | 53.57588 | 25140 ft | 487 kts | 114° |
| 2026-04-28 13:30 | 25.89365 | 53.61095 | 24777 ft | 484 kts | 114° |
| 2026-04-28 13:30 | 25.88189 | 53.64593 | 24417 ft | 481 kts | 114° |
| 2026-04-28 13:30 | 25.87019 | 53.68054 | 24058 ft | 478 kts | 114° |
| 2026-04-28 13:30 | 25.85843 | 53.71500 | 23703 ft | 475 kts | 114° |
| 2026-04-28 13:31 | 25.83492 | 53.78299 | 22943 ft | 466 kts | 114° |
| 2026-04-28 13:31 | 25.82327 | 53.81647 | 22601 ft | 463 kts | 114° |
| 2026-04-28 13:31 | 25.81170 | 53.84964 | 22249 ft | 460 kts | 114° |
| 2026-04-28 13:32 | 25.80019 | 53.88256 | 21903 ft | 456 kts | 114° |
| 2026-04-28 13:32 | 25.78875 | 53.91530 | 21559 ft | 453 kts | 114° |
| 2026-04-28 13:32 | 25.77751 | 53.94781 | 21220 ft | 450 kts | 112° |
| 2026-04-28 13:32 | 25.76972 | 53.98144 | 20880 ft | 450 kts | 101° |
| 2026-04-28 13:33 | 25.76759 | 54.01555 | 20546 ft | 448 kts | 90° |
| 2026-04-28 13:33 | 25.77103 | 54.04979 | 20201 ft | 445 kts | 78° |
| 2026-04-28 13:33 | 25.77974 | 54.08258 | 19866 ft | 442 kts | 70° |
| 2026-04-28 13:33 | 25.79008 | 54.11466 | 19530 ft | 439 kts | 70° |
| 2026-04-28 13:34 | 25.80024 | 54.14644 | 19200 ft | 436 kts | 71° |
| 2026-04-28 13:34 | 25.81029 | 54.17804 | 18871 ft | 433 kts | 71° |
| 2026-04-28 13:34 | 25.82022 | 54.20946 | 18543 ft | 430 kts | 71° |
| 2026-04-28 13:34 | 25.83006 | 54.24060 | 18216 ft | 426 kts | 71° |
| 2026-04-28 13:35 | 25.83985 | 54.27148 | 17872 ft | 422 kts | 70° |
| 2026-04-28 13:35 | 25.84959 | 54.30218 | 17547 ft | 419 kts | 70° |
| 2026-04-28 13:35 | 25.85923 | 54.33259 | 17231 ft | 417 kts | 70° |
| 2026-04-28 13:35 | 25.86821 | 54.36304 | 16914 ft | 414 kts | 76° |
| 2026-04-28 13:36 | 25.87249 | 54.39457 | 16603 ft | 411 kts | 88° |
| 2026-04-28 13:36 | 25.87134 | 54.42611 | 16294 ft | 408 kts | 99° |
| 2026-04-28 13:36 | 25.86501 | 54.45669 | 15986 ft | 404 kts | 110° |
| 2026-04-28 13:36 | 25.85575 | 54.48603 | 15677 ft | 402 kts | 111° |
| 2026-04-28 13:37 | 25.84653 | 54.51524 | 15379 ft | 401 kts | 111° |
| 2026-04-28 13:37 | 25.83737 | 54.54434 | 15077 ft | 399 kts | 110° |
| 2026-04-28 13:37 | 25.82824 | 54.57336 | 14777 ft | 397 kts | 110° |
| 2026-04-28 13:37 | 25.81912 | 54.60224 | 14517 ft | 395 kts | 110° |
| 2026-04-28 13:38 | 25.81017 | 54.63059 | 14332 ft | 394 kts | 110° |
| 2026-04-28 13:38 | 25.80109 | 54.65931 | 14101 ft | 395 kts | 110° |
| 2026-04-28 13:38 | 25.79202 | 54.68796 | 13809 ft | 393 kts | 110° |
| 2026-04-28 13:38 | 25.78294 | 54.71652 | 13507 ft | 391 kts | 110° |
| 2026-04-28 13:39 | 25.77393 | 54.74491 | 13196 ft | 390 kts | 110° |
| 2026-04-28 13:39 | 25.76497 | 54.77304 | 12977 ft | 380 kts | 110° |
| 2026-04-28 13:39 | 25.75632 | 54.80018 | 12849 ft | 367 kts | 110° |
| 2026-04-28 13:39 | 25.74795 | 54.82643 | 12720 ft | 355 kts | 110° |
| 2026-04-28 13:40 | 25.73984 | 54.85185 | 12607 ft | 344 kts | 110° |
| 2026-04-28 13:40 | 25.73197 | 54.87649 | 12469 ft | 334 kts | 110° |
| 2026-04-28 13:40 | 25.72433 | 54.90040 | 12345 ft | 322 kts | 110° |
| 2026-04-28 13:40 | 25.71702 | 54.92330 | 12187 ft | 310 kts | 110° |
| 2026-04-28 13:41 | 25.70986 | 54.94562 | 11978 ft | 305 kts | 110° |
| 2026-04-28 13:41 | 25.70280 | 54.96762 | 11840 ft | 301 kts | 110° |
| 2026-04-28 13:41 | 25.69583 | 54.98942 | 11721 ft | 300 kts | 110° |
| 2026-04-28 13:41 | 25.68888 | 55.01123 | 11597 ft | 299 kts | 110° |
| 2026-04-28 13:42 | 25.68145 | 55.03269 | 11467 ft | 298 kts | 117° |
| 2026-04-28 13:42 | 25.67134 | 55.05268 | 11338 ft | 297 kts | 121° |
| 2026-04-28 13:42 | 25.66105 | 55.07248 | 11207 ft | 296 kts | 121° |
| 2026-04-28 13:42 | 25.65080 | 55.09218 | 11084 ft | 295 kts | 121° |
| 2026-04-28 13:43 | 25.64057 | 55.11187 | 10953 ft | 295 kts | 121° |
| 2026-04-28 13:43 | 25.63045 | 55.13133 | 10649 ft | 295 kts | 120° |
| 2026-04-28 13:43 | 25.62026 | 55.15093 | 10358 ft | 293 kts | 120° |
| 2026-04-28 13:43 | 25.61014 | 55.17040 | 10077 ft | 291 kts | 120° |
| 2026-04-28 13:44 | 25.60008 | 55.18974 | 9795 ft | 289 kts | 120° |
| 2026-04-28 13:44 | 25.59009 | 55.20895 | 9526 ft | 286 kts | 120° |
| 2026-04-28 13:44 | 25.58021 | 55.22800 | 9226 ft | 284 kts | 120° |
| 2026-04-28 13:44 | 25.57038 | 55.24697 | 8952 ft | 283 kts | 120° |
| 2026-04-28 13:45 | 25.56063 | 55.26582 | 8681 ft | 282 kts | 119° |
| 2026-04-28 13:45 | 25.55088 | 55.28470 | 8405 ft | 282 kts | 119° |
| 2026-04-28 13:45 | 25.54116 | 55.30359 | 8137 ft | 281 kts | 119° |
| 2026-04-28 13:45 | 25.53149 | 55.32235 | 7922 ft | 279 kts | 119° |
| 2026-04-28 13:46 | 25.52178 | 55.34099 | 7870 ft | 280 kts | 119° |
| 2026-04-28 13:46 | 25.51197 | 55.35968 | 7777 ft | 281 kts | 119° |
| 2026-04-28 13:46 | 25.50216 | 55.37829 | 7656 ft | 279 kts | 120° |
| 2026-04-28 13:46 | 25.49257 | 55.39654 | 7545 ft | 278 kts | 119° |
| 2026-04-28 13:47 | 25.48288 | 55.41501 | 7425 ft | 277 kts | 119° |
| 2026-04-28 13:47 | 25.47310 | 55.43337 | 7307 ft | 277 kts | 120° |
| 2026-04-28 13:47 | 25.46312 | 55.45169 | 7190 ft | 277 kts | 120° |
| 2026-04-28 13:47 | 25.45308 | 55.46990 | 7070 ft | 277 kts | 120° |
| 2026-04-28 13:48 | 25.44294 | 55.48799 | 6960 ft | 276 kts | 122° |
| 2026-04-28 13:48 | 25.43249 | 55.50579 | 6845 ft | 276 kts | 122° |
| 2026-04-28 13:48 | 25.42195 | 55.52342 | 6656 ft | 271 kts | 123° |
| 2026-04-28 13:48 | 25.41174 | 55.54049 | 6542 ft | 261 kts | 122° |
| 2026-04-28 13:49 | 25.40186 | 55.55706 | 6369 ft | 256 kts | 122° |
| 2026-04-28 13:49 | 25.39213 | 55.57344 | 6111 ft | 254 kts | 122° |
| 2026-04-28 13:49 | 25.38249 | 55.58974 | 5831 ft | 253 kts | 122° |
| 2026-04-28 13:49 | 25.37304 | 55.60614 | 5586 ft | 251 kts | 120° |
| 2026-04-28 13:50 | 25.36403 | 55.62228 | 5477 ft | 240 kts | 120° |
| 2026-04-28 13:50 | 25.35555 | 55.63761 | 5284 ft | 229 kts | 120° |
| 2026-04-28 13:50 | 25.34731 | 55.65256 | 4935 ft | 226 kts | 119° |
| 2026-04-28 13:50 | 25.33927 | 55.66720 | 4581 ft | 225 kts | 119° |
| 2026-04-28 13:51 | 25.33104 | 55.68209 | 4220 ft | 223 kts | 119° |
| 2026-04-28 13:51 | 25.32305 | 55.69642 | 3881 ft | 221 kts | 119° |
| 2026-04-28 13:51 | 25.31496 | 55.71085 | 3531 ft | 221 kts | 119° |
| 2026-04-28 13:51 | 25.30690 | 55.72531 | 3164 ft | 221 kts | 119° |
| 2026-04-28 13:52 | 25.29788 | 55.73902 | 2816 ft | 221 kts | 139° |
| 2026-04-28 13:52 | 25.28418 | 55.74585 | 2506 ft | 217 kts | 175° |
| 2026-04-28 13:52 | 25.26971 | 55.74307 | 2190 ft | 211 kts | 206° |
| 2026-04-28 13:52 | 25.25673 | 55.73589 | 2002 ft | 209 kts | 211° |
| 2026-04-28 13:53 | 25.24392 | 55.72817 | 1994 ft | 209 kts | 213° |
| 2026-04-28 13:53 | 25.23203 | 55.71891 | 1989 ft | 208 kts | 231° |
| 2026-04-28 13:53 | 25.22620 | 55.70496 | 1991 ft | 201 kts | 268° |
| 2026-04-28 13:53 | 25.22970 | 55.69065 | 1999 ft | 195 kts | 308° |
| 2026-04-28 13:54 | 25.23760 | 55.67931 | 1989 ft | 178 kts | 304° |
| 2026-04-28 13:54 | 25.24406 | 55.66825 | 1981 ft | 166 kts | 305° |
| 2026-04-28 13:54 | 25.25021 | 55.65761 | 1985 ft | 163 kts | 303° |
| 2026-04-28 13:54 | 25.25629 | 55.64708 | 1988 ft | 162 kts | 304° |
| 2026-04-28 13:55 | 25.26241 | 55.63650 | 1986 ft | 164 kts | 304° |
| 2026-04-28 13:55 | 25.26854 | 55.62589 | 1893 ft | 166 kts | 304° |
| 2026-04-28 13:55 | 25.27464 | 55.61533 | 1727 ft | 162 kts | 305° |
| 2026-04-28 13:55 | 25.28075 | 55.60476 | 1536 ft | 163 kts | 306° |
| 2026-04-28 13:56 | 25.28676 | 55.59434 | 1332 ft | 158 kts | 306° |
| 2026-04-28 13:56 | 25.29238 | 55.58458 | 1168 ft | 145 kts | 307° |
| 2026-04-28 13:56 | 25.29769 | 55.57539 | 979 ft | 141 kts | 306° |
| 2026-04-28 13:56 | 25.30306 | 55.56615 | 778 ft | 143 kts | 303° |
| 2026-04-28 13:57 | 25.30842 | 55.55687 | 586 ft | 142 kts | 302° |
| 2026-04-28 13:57 | 25.31367 | 55.54772 | 455 ft | 141 kts | 302° |
| 2026-04-28 13:57 | 25.31889 | 55.53869 | 281 ft | 138 kts | 301° |
| 2026-04-28 13:57 | 25.32394 | 55.52985 | 126 ft | 130 kts | 303° |
| 2026-04-28 13:58 | 25.32820 | 55.52253 | 113 ft | 90 kts | 302° |
| 2026-04-28 13:58 | 25.33070 | 55.51816 | 118 ft | 54 kts | 302° |
| 2026-04-28 13:58 | 25.33245 | 55.51510 | 118 ft | 39 kts | 302° |
| 2026-04-28 13:58 | 25.33373 | 55.51287 | 115 ft | 29 kts | 302° |
| 2026-04-28 13:59 | 25.33451 | 55.51151 | 114 ft | 13 kts | 301° |
| 2026-04-28 13:59 | 25.33468 | 55.51059 | 115 ft | 12 kts | 256° |
| 2026-04-28 13:59 | 25.33429 | 55.50991 | 114 ft | 6 kts | 226° |
| 2026-04-28 13:59 | 25.33400 | 55.50967 | 115 ft | 5 kts | 211° |
| 2026-04-28 14:00 | 25.33371 | 55.50949 | 112 ft | 5 kts | 211° |
| 2026-04-28 14:00 | 25.33339 | 55.50927 | 115 ft | 7 kts | 213° |
| 2026-04-28 14:00 | 25.33301 | 55.50899 | 113 ft | 9 kts | 213° |
| 2026-04-28 14:00 | 25.33248 | 55.50863 | 112 ft | 8 kts | 212° |
| 2026-04-28 14:01 | 25.33201 | 55.50837 | 115 ft | 7 kts | 189° |
| 2026-04-28 14:01 | 25.33137 | 55.50895 | 112 ft | 19 kts | 125° |
| 2026-04-28 14:01 | 25.33071 | 55.51010 | 115 ft | 17 kts | 122° |
| 2026-04-28 14:01 | 25.33012 | 55.51114 | 115 ft | 15 kts | 122° |
| 2026-04-28 14:02 | 25.32958 | 55.51207 | 114 ft | 14 kts | 122° |
| 2026-04-28 14:02 | 25.32900 | 55.51309 | 114 ft | 18 kts | 122° |
| 2026-04-28 14:02 | 25.32834 | 55.51423 | 112 ft | 17 kts | 122° |
| 2026-04-28 14:02 | 25.32775 | 55.51526 | 113 ft | 15 kts | 122° |
| 2026-04-28 14:03 | 25.32720 | 55.51621 | 115 ft | 15 kts | 122° |
| 2026-04-28 14:03 | 25.32665 | 55.51717 | 114 ft | 14 kts | 122° |
| 2026-04-28 14:03 | 25.32615 | 55.51803 | 113 ft | 13 kts | 122° |
| 2026-04-28 14:03 | 25.32571 | 55.51881 | 113 ft | 11 kts | 122° |
| 2026-04-28 14:04 | 25.32530 | 55.51952 | 112 ft | 10 kts | 122° |
| 2026-04-28 14:04 | 25.32494 | 55.52014 | 115 ft | 9 kts | 122° |
| 2026-04-28 14:04 | 25.32461 | 55.52072 | 113 ft | 9 kts | 122° |
| 2026-04-28 14:04 | 25.32431 | 55.52124 | 114 ft | 8 kts | 122° |
| 2026-04-28 14:05 | 25.32404 | 55.52171 | 112 ft | 7 kts | 122° |
| 2026-04-28 14:05 | 25.32371 | 55.52203 | 115 ft | 6 kts | 165° |
| 2026-04-28 14:05 | 25.32337 | 55.52194 | 115 ft | 5 kts | 210° |
| 2026-04-28 14:05 | 25.32312 | 55.52177 | 115 ft | 4 kts | 211° |
| 2026-04-28 14:06 | 25.32289 | 55.52161 | 115 ft | 5 kts | 211° |
| 2026-04-28 14:06 | 25.32270 | 55.52148 | 115 ft | 1 kts | 212° |
| 2026-04-28 14:06 | 25.32262 | 55.52143 | 112 ft | 2 kts | 212° |
| 2026-04-28 14:06 | 25.32255 | 55.52138 | 113 ft | 1 kts | 212° |
| 2026-04-28 14:07 | 25.32254 | 55.52137 | 113 ft | 0 kts | 212° |